Time;durP1;ratioP1;P1;durP2;ratioP2;P2;SDS_P1;SDS_P2;PMS_P1;PMS_P2;Temp;Humidity;BMP_temperature;BMP_pressure;BME280_temperature;BME280_humidity;BME280_pressure;Samples;Min_cycle;Max_cycle;Signal;HPM_P1;HPM_P2
2021/08/30 00:01:39;;;;;;;0.40;0.40;;;10.90;99.90;;;;;;5108199;28;20217;-74
2021/08/30 00:04:05;;;;;;;0.20;0.20;;;11.10;99.90;;;;;;5089937;28;20182;-74
2021/08/30 00:06:31;;;;;;;0.30;0.30;;;11.20;99.90;;;;;;5089936;28;20259;-73
2021/08/30 00:08:57;;;;;;;0.40;0.32;;;11.30;99.90;;;;;;5089660;28;20180;-74
2021/08/30 00:11:23;;;;;;;0.57;0.57;;;11.40;99.90;;;;;;5089877;28;20211;-74
2021/08/30 00:13:49;;;;;;;0.20;0.20;;;11.50;99.90;;;;;;5108097;28;20221;-74
2021/08/30 00:16:15;;;;;;;0.73;0.73;;;11.40;99.90;;;;;;5108129;28;20159;-74
2021/08/30 00:18:41;;;;;;;0.30;0.30;;;11.20;99.90;;;;;;5108042;28;20209;-74
2021/08/30 00:21:07;;;;;;;0.10;0.10;;;11.10;99.90;;;;;;5107940;28;20186;-74
2021/08/30 00:23:33;;;;;;;0.20;0.20;;;11.10;99.90;;;;;;5089226;28;20171;-73
2021/08/30 00:26:02;;;;;;;1.42;1.42;;;11.10;99.90;;;;;;5107834;28;20183;-73
2021/08/30 00:28:27;;;;;;;0.10;0.10;;;11.10;99.90;;;;;;5108021;28;20151;-73
2021/08/30 00:30:53;;;;;;;0.10;0.10;;;11.20;99.90;;;;;;5089641;28;20241;-73
2021/08/30 00:33:19;;;;;;;1.17;1.10;;;11.30;99.90;;;;;;5089617;28;20171;-73
2021/08/30 00:35:45;;;;;;;0.15;0.15;;;11.10;99.90;;;;;;5107977;28;20159;-73
2021/08/30 00:38:11;;;;;;;0.82;0.63;;;11.10;99.90;;;;;;5107779;28;20222;-73
2021/08/30 00:40:37;;;;;;;0.10;0.10;;;10.80;99.90;;;;;;5089468;28;20246;-73
2021/08/30 00:43:04;;;;;;;0.55;0.40;;;10.60;99.90;;;;;;5107714;28;20182;-73
2021/08/30 00:45:32;;;;;;;0.30;0.30;;;10.50;99.90;;;;;;5107887;28;20172;-72
2021/08/30 00:47:58;;;;;;;2.45;0.63;;;10.40;99.90;;;;;;5107733;28;20171;-73
2021/08/30 00:50:24;;;;;;;0.15;0.15;;;10.50;99.90;;;;;;5091567;28;20203;-73
2021/08/30 00:52:51;;;;;;;0.20;0.20;;;10.50;99.90;;;;;;5110715;28;20313;-73
2021/08/30 00:55:18;;;;;;;0.50;0.50;;;10.40;99.90;;;;;;5111434;28;20148;-73
2021/08/30 00:57:44;;;;;;;0.55;0.55;;;10.30;99.90;;;;;;5093085;28;20680;-73
2021/08/30 01:00:11;;;;;;;12.85;1.00;;;10.40;99.90;;;;;;5092981;28;20195;-73
2021/08/30 01:02:40;;;;;;;0.52;0.52;;;10.40;99.90;;;;;;5111334;28;20155;-72
2021/08/30 01:05:07;;;;;;;0.17;0.17;;;10.40;99.90;;;;;;5111286;28;20152;-72
2021/08/30 01:08:04;;;;;;;0.20;0.20;;;10.60;99.90;;;;;;5092906;28;20178;-73
2021/08/30 01:10:54;;;;;;;0.10;0.10;;;10.60;99.90;;;;;;5110947;28;20225;-73
2021/08/30 01:13:34;;;;;;;0.13;0.13;;;10.20;99.90;;;;;;5092800;28;20171;-73
2021/08/30 01:16:03;;;;;;;0.25;0.25;;;10.00;99.90;;;;;;5092193;28;20163;-73
2021/08/30 01:18:31;;;;;;;0.28;0.28;;;9.90;99.90;;;;;;5089361;28;20182;-73
2021/08/30 01:21:28;;;;;;;0.10;0.10;;;9.90;99.90;;;;;;5110039;28;20194;-73
2021/08/30 01:24:17;;;;;;;0.32;0.25;;;10.40;99.90;;;;;;5092499;28;20175;-73
2021/08/30 01:26:47;;;;;;;0.20;0.20;;;10.90;99.90;;;;;;5090046;28;20183;-73
2021/08/30 01:29:34;;;;;;;0.80;0.52;;;10.70;99.90;;;;;;5091392;28;20212;-73
2021/08/30 01:32:23;;;;;;;0.20;0.20;;;10.50;99.90;;;;;;5107842;28;20274;-73
2021/08/30 01:34:49;;;;;;;0.10;0.10;;;10.80;99.90;;;;;;5108504;28;20179;-72
2021/08/30 01:37:15;;;;;;;0.32;0.32;;;11.00;99.90;;;;;;5092282;28;20171;-72
2021/08/30 01:39:42;;;;;;;0.15;0.15;;;10.70;99.90;;;;;;5092181;28;20172;-72
2021/08/30 01:42:08;;;;;;;0.32;0.32;;;10.60;99.90;;;;;;5110331;28;20158;-72
2021/08/30 01:44:35;;;;;;;0.20;0.20;;;10.60;99.90;;;;;;5110345;28;20174;-72
2021/08/30 01:47:02;;;;;;;0.10;0.10;;;10.20;99.90;;;;;;5092069;28;20175;-72
2021/08/30 01:49:30;;;;;;;0.50;0.50;;;10.20;99.90;;;;;;5110306;28;20167;-72
2021/08/30 01:51:57;;;;;;;0.15;0.15;;;9.90;99.90;;;;;;5109348;28;20225;-72
2021/08/30 01:54:24;;;;;;;0.30;0.30;;;9.90;99.90;;;;;;5110086;28;20147;-72
2021/08/30 01:56:54;;;;;;;0.90;0.63;;;9.90;99.90;;;;;;5109996;28;20183;-72
2021/08/30 02:02:07;;;;;;;0.20;0.20;;;9.50;99.90;;;;;;5110001;28;20209;-72
2021/08/30 02:04:34;;;;;;;0.65;0.65;;;9.40;99.90;;;;;;5091610;28;20171;-72
2021/08/30 02:07:01;;;;;;;0.13;0.13;;;9.40;99.90;;;;;;5091256;28;20176;-72
2021/08/30 02:09:28;;;;;;;0.35;0.35;;;9.30;99.90;;;;;;5109734;28;20250;-72
2021/08/30 02:11:54;;;;;;;0.50;0.20;;;9.30;99.90;;;;;;5128810;28;20229;-72
2021/08/30 02:14:20;;;;;;;0.45;0.45;;;9.60;99.90;;;;;;5130211;28;20159;-73
2021/08/30 02:17:00;;;;;;;0.13;0.13;;;10.00;99.90;;;;;;5117388;28;20166;-73
2021/08/30 02:19:44;;;;;;;1.30;1.15;;;10.30;99.90;;;;;;5109518;28;20218;-73
2021/08/30 02:22:20;;;;;;;0.20;0.20;;;10.00;99.90;;;;;;5091121;28;20254;-73
2021/08/30 02:24:56;;;;;;;0.10;0.10;;;9.70;99.90;;;;;;5109158;28;20171;-73
2021/08/30 02:27:39;;;;;;;0.85;0.77;;;9.50;99.90;;;;;;5109539;28;20159;-73
2021/08/30 02:30:11;;;;;;;0.70;0.57;;;9.80;99.90;;;;;;5091154;28;20197;-73
2021/08/30 02:32:38;;;;;;;0.40;0.40;;;10.00;99.90;;;;;;5091078;28;20191;-73
2021/08/30 02:35:08;;;;;;;0.40;0.40;;;10.30;99.90;;;;;;5090963;28;20214;-71
2021/08/30 02:37:39;;;;;;;0.55;0.55;;;10.10;99.90;;;;;;5109518;28;20158;-73
2021/08/30 02:40:06;;;;;;;0.10;0.10;;;9.70;99.90;;;;;;5109142;28;20203;-73
2021/08/30 02:42:34;;;;;;;0.35;0.35;;;9.40;99.90;;;;;;5108511;28;20175;-73
2021/08/30 02:45:06;;;;;;;0.45;0.45;;;9.30;99.90;;;;;;5090935;28;20549;-73
2021/08/30 02:47:35;;;;;;;0.10;0.10;;;9.30;99.90;;;;;;5108898;28;20170;-71
2021/08/30 02:50:04;;;;;;;0.20;0.20;;;9.30;99.90;;;;;;5090495;28;20203;-73
2021/08/30 02:52:31;;;;;;;1.27;0.55;;;9.20;99.90;;;;;;5090717;28;20231;-74
2021/08/30 02:54:57;;;;;;;0.20;0.20;;;9.20;99.90;;;;;;5108868;28;20186;-72
2021/08/30 02:57:24;;;;;;;0.65;0.65;;;9.00;99.90;;;;;;5108839;28;20163;-73
2021/08/30 02:59:52;;;;;;;0.45;0.45;;;9.00;99.90;;;;;;5108883;28;20156;-72
2021/08/30 03:02:21;;;;;;;0.82;0.82;;;9.00;99.90;;;;;;5109085;28;20171;-73
2021/08/30 03:04:48;;;;;;;0.30;0.30;;;8.90;99.90;;;;;;5089254;28;20191;-73
2021/08/30 03:07:15;;;;;;;0.10;0.10;;;8.90;99.90;;;;;;5108609;28;20191;-73
2021/08/30 03:09:41;;;;;;;0.28;0.28;;;9.20;99.90;;;;;;5090462;28;20536;-73
2021/08/30 03:12:08;;;;;;;0.10;0.10;;;9.40;99.90;;;;;;5108018;28;20242;-73
2021/08/30 03:14:37;;;;;;;0.20;0.20;;;9.60;99.90;;;;;;5108534;28;20187;-73
2021/08/30 03:17:09;;;;;;;5.88;1.75;;;9.40;99.90;;;;;;5108210;28;20195;-73
2021/08/30 03:19:35;;;;;;;0.22;0.22;;;9.10;99.90;;;;;;5090388;28;20210;-73
2021/08/30 03:22:02;;;;;;;1.02;0.77;;;9.10;99.90;;;;;;5109342;28;20159;-73
2021/08/30 03:24:30;;;;;;;0.10;0.10;;;9.10;99.90;;;;;;5109182;28;20159;-72
2021/08/30 03:26:58;;;;;;;0.47;0.45;;;9.40;99.90;;;;;;5108807;28;20187;-73
2021/08/30 03:29:24;;;;;;;0.10;0.10;;;9.70;99.90;;;;;;5108905;28;20155;-74
2021/08/30 03:31:51;;;;;;;0.20;0.20;;;9.90;99.90;;;;;;5108987;28;20187;-74
2021/08/30 03:34:20;;;;;;;0.25;0.25;;;10.00;99.90;;;;;;5108666;28;20155;-74
2021/08/30 03:36:47;;;;;;;0.57;0.57;;;10.20;99.90;;;;;;5108434;28;20240;-73
2021/08/30 03:39:15;;;;;;;1.27;0.40;;;10.30;99.90;;;;;;5090342;28;20167;-73
2021/08/30 03:41:41;;;;;;;0.50;0.50;;;10.30;99.90;;;;;;5107948;28;20209;-73
2021/08/30 03:44:09;;;;;;;0.10;0.10;;;10.50;99.90;;;;;;5108276;28;20159;-73
2021/08/30 03:46:37;;;;;;;1.27;1.17;;;10.50;99.90;;;;;;5108172;28;20195;-72
2021/08/30 03:49:04;;;;;;;0.32;0.32;;;10.40;99.90;;;;;;5108169;28;20163;-72
2021/08/30 03:51:31;;;;;;;0.30;0.30;;;10.30;99.90;;;;;;5101005;28;20239;-75
2021/08/30 03:53:57;;;;;;;0.22;0.22;;;10.10;99.90;;;;;;5070102;28;20176;-73
2021/08/30 03:56:27;;;;;;;0.38;0.38;;;10.20;99.90;;;;;;5087788;28;20219;-73
2021/08/30 03:58:53;;;;;;;0.28;0.28;;;9.70;99.90;;;;;;5087773;28;20178;-73
2021/08/30 04:01:25;;;;;;;1.25;0.95;;;9.40;99.90;;;;;;5069999;28;20175;-73
2021/08/30 04:03:54;;;;;;;0.30;0.30;;;9.50;99.90;;;;;;5087931;28;20186;-74
2021/08/30 04:06:21;;;;;;;0.15;0.15;;;9.60;99.90;;;;;;5087781;28;20200;-73
2021/08/30 04:08:48;;;;;;;0.10;0.10;;;10.10;99.90;;;;;;5069557;28;20229;-72
2021/08/30 04:11:15;;;;;;;0.20;0.20;;;10.10;99.90;;;;;;5087932;28;20195;-74
2021/08/30 04:13:41;;;;;;;3.85;1.65;;;10.20;99.90;;;;;;5087680;28;20602;-74
2021/08/30 04:16:08;;;;;;;0.13;0.13;;;10.10;99.90;;;;;;5087850;28;20219;-73
2021/08/30 04:18:35;;;;;;;0.15;0.15;;;10.30;99.90;;;;;;5069678;28;20545;-74
2021/08/30 04:21:01;;;;;;;0.10;0.10;;;10.40;99.90;;;;;;5087736;28;20254;-72
2021/08/30 04:23:30;;;;;;;0.38;0.38;;;10.60;99.90;;;;;;5069529;28;20172;-72
2021/08/30 04:25:57;;;;;;;0.10;0.10;;;10.70;99.90;;;;;;5090813;28;20321;-73
2021/08/30 04:28:23;;;;;;;1.02;0.93;;;10.40;99.90;;;;;;5091604;28;20164;-72
2021/08/30 04:30:49;;;;;;;0.10;0.10;;;9.80;99.90;;;;;;5091714;28;20192;-73
2021/08/30 04:33:16;;;;;;;0.52;0.25;;;9.40;99.90;;;;;;5073538;28;20160;-72
2021/08/30 04:35:42;;;;;;;1.15;1.05;;;9.40;99.90;;;;;;5091376;28;20227;-72
2021/08/30 04:38:08;;;;;;;0.10;0.10;;;9.50;99.90;;;;;;5073310;28;20171;-72
2021/08/30 04:40:37;;;;;;;0.75;0.50;;;9.70;99.90;;;;;;5091270;28;20164;-75
2021/08/30 04:43:03;;;;;;;1.95;0.55;;;9.60;99.90;;;;;;5091377;28;20153;-74
2021/08/30 04:45:29;;;;;;;0.40;0.40;;;9.50;99.90;;;;;;5073363;28;20187;-74
2021/08/30 04:47:54;;;;;;;1.55;1.05;;;9.60;99.90;;;;;;5091360;28;20263;-74
2021/08/30 04:50:20;;;;;;;0.22;0.22;;;9.50;99.90;;;;;;5073094;28;20244;-74
2021/08/30 04:52:46;;;;;;;0.10;0.10;;;9.70;99.90;;;;;;5073029;28;20227;-74
2021/08/30 04:55:12;;;;;;;0.52;0.50;;;9.80;99.90;;;;;;5091235;28;20159;-74
2021/08/30 04:57:41;;;;;;;0.57;0.57;;;10.00;99.90;;;;;;5091250;28;20156;-75
2021/08/30 05:00:09;;;;;;;3.70;0.68;;;10.30;99.90;;;;;;5073143;28;20239;-76
2021/08/30 05:02:35;;;;;;;4.95;1.95;;;10.90;99.90;;;;;;5091172;28;20584;-76
2021/08/30 05:05:01;;;;;;;0.52;0.52;;;11.80;99.90;;;;;;5072956;28;20203;-76
2021/08/30 05:07:26;;;;;;;0.10;0.10;;;12.40;99.90;;;;;;5090882;28;20165;-77
2021/08/30 05:09:52;;;;;;;0.47;0.47;;;12.40;99.90;;;;;;5072738;28;20251;-76
2021/08/30 05:12:21;;;;;;;1.10;1.00;;;12.80;99.90;;;;;;5090845;28;20343;-78
2021/08/30 05:14:47;;;;;;;2.10;2.00;;;13.30;99.90;;;;;;5072696;28;20171;-75
2021/08/30 05:17:13;;;;;;;0.40;0.40;;;13.60;99.90;;;;;;5072803;28;20195;-75
2021/08/30 05:19:39;;;;;;;0.50;0.50;;;14.20;99.90;;;;;;5072684;28;20174;-75
2021/08/30 05:22:05;;;;;;;0.45;0.45;;;14.40;99.90;;;;;;5072570;28;20245;-75
2021/08/30 05:24:31;;;;;;;0.43;0.43;;;14.90;99.90;;;;;;5090698;28;20160;-75
2021/08/30 05:26:56;;;;;;;1.02;0.85;;;15.20;99.90;;;;;;5090552;28;20282;-75
2021/08/30 05:29:22;;;;;;;0.60;0.60;;;15.10;99.90;;;;;;5090604;28;20166;-75
2021/08/30 05:31:48;;;;;;;1.98;1.85;;;14.90;99.90;;;;;;5090495;28;20227;-75
2021/08/30 05:34:14;;;;;;;1.85;1.33;;;15.10;99.90;;;;;;5090537;28;20157;-76
2021/08/30 05:36:40;;;;;;;1.38;1.27;;;15.60;99.90;;;;;;5071972;28;20309;-75
2021/08/30 05:39:06;;;;;;;3.42;1.33;;;15.40;99.90;;;;;;5090011;28;20168;-75
2021/08/30 05:41:32;;;;;;;0.57;0.57;;;15.50;99.90;;;;;;5072220;28;20186;-76
2021/08/30 05:43:58;;;;;;;1.20;1.10;;;15.70;99.90;;;;;;5090232;28;20164;-80
2021/08/30 05:46:24;;;;;;;1.17;1.08;;;16.40;99.90;;;;;;5072294;28;20199;-76
2021/08/30 05:48:50;;;;;;;0.20;0.20;;;16.70;99.90;;;;;;5090314;28;20546;-76
2021/08/30 05:51:16;;;;;;;0.30;0.30;;;15.70;99.90;;;;;;5076922;28;20226;-77
2021/08/30 05:53:43;;;;;;;0.57;0.57;;;15.90;99.90;;;;;;5092106;28;20175;-78
2021/08/30 05:56:09;;;;;;;2.08;1.25;;;16.00;99.90;;;;;;5110609;28;20201;-77
2021/08/30 05:58:38;;;;;;;0.70;0.45;;;16.80;99.90;;;;;;5092133;28;20239;-77
2021/08/30 06:01:06;;;;;;;2.47;1.23;;;16.70;99.90;;;;;;5092150;28;20163;-78
2021/08/30 06:03:32;;;;;;;0.30;0.30;;;16.50;99.90;;;;;;5092198;28;20260;-75
2021/08/30 06:05:58;;;;;;;0.68;0.68;;;16.60;99.90;;;;;;5111420;28;20194;-76
2021/08/30 06:08:24;;;;;;;0.63;0.63;;;17.40;99.90;;;;;;5110577;28;20163;-77
2021/08/30 06:10:50;;;;;;;0.20;0.20;;;17.80;99.90;;;;;;5111407;28;20191;-79
2021/08/30 06:13:18;;;;;;;1.02;1.02;;;17.90;99.90;;;;;;5082712;28;20189;-79
2021/08/30 06:15:44;;;;;;;0.47;0.47;;;18.50;99.90;;;;;;5122743;28;20186;-78
2021/08/30 06:18:09;;;;;;;0.30;0.30;;;18.10;99.90;;;;;;5111617;28;20167;-77
2021/08/30 06:20:35;;;;;;;0.30;0.30;;;17.60;99.90;;;;;;5112061;28;20230;-76
2021/08/30 06:23:01;;;;;;;0.50;0.50;;;17.30;99.90;;;;;;5114210;28;20174;-77
2021/08/30 06:25:27;;;;;;;1.77;0.77;;;17.20;99.90;;;;;;5109480;28;20187;-77
2021/08/30 06:27:53;;;;;;;0.20;0.20;;;18.00;99.90;;;;;;5112564;28;20279;-77
2021/08/30 06:30:19;;;;;;;0.45;0.43;;;18.50;99.90;;;;;;5115401;28;20174;-76
2021/08/30 06:32:45;;;;;;;0.10;0.10;;;19.20;99.90;;;;;;5126093;28;20206;-77
2021/08/30 06:35:12;;;;;;;0.10;0.10;;;19.10;99.90;;;;;;5110823;28;20543;-78
2021/08/30 06:37:38;;;;;;;13.60;1.05;;;19.40;99.90;;;;;;5130044;28;20154;-77
2021/08/30 06:40:08;;;;;;;0.52;0.52;;;18.70;99.90;;;;;;5129368;28;20162;-76
2021/08/30 06:42:34;;;;;;;0.10;0.10;;;20.00;99.90;;;;;;5111613;28;20234;-78
2021/08/30 06:45:00;;;;;;;0.55;0.55;;;20.50;99.90;;;;;;5111107;28;20181;-76
2021/08/30 06:47:26;;;;;;;0.32;0.32;;;19.70;99.90;;;;;;5128899;28;20158;-75
2021/08/30 06:49:52;;;;;;;0.40;0.40;;;19.30;99.90;;;;;;5129003;28;20159;-76
2021/08/30 06:52:18;;;;;;;3.88;0.47;;;18.30;99.90;;;;;;5110858;28;20283;-77
2021/08/30 06:54:44;;;;;;;0.28;0.28;;;17.50;99.90;;;;;;5111038;28;20190;-77
2021/08/30 06:57:10;;;;;;;2.75;2.05;;;17.20;99.90;;;;;;5129369;28;20184;-76
2021/08/30 06:59:36;;;;;;;0.10;0.10;;;17.30;99.90;;;;;;5129062;28;20162;-75
2021/08/30 07:02:02;;;;;;;0.17;0.17;;;17.80;99.90;;;;;;5111945;28;20230;-76
2021/08/30 07:04:27;;;;;;;0.90;0.40;;;18.10;99.90;;;;;;5108840;28;20639;-75
2021/08/30 07:06:53;;;;;;;0.10;0.10;;;18.30;99.90;;;;;;5109042;28;20191;-75
2021/08/30 07:09:19;;;;;;;0.57;0.20;;;18.10;99.90;;;;;;5090337;28;20179;-75
2021/08/30 07:11:48;;;;;;;0.10;0.10;;;18.70;99.90;;;;;;5090332;28;20241;-75
2021/08/30 07:14:13;;;;;;;0.30;0.30;;;18.80;99.90;;;;;;5108801;28;20151;-74
2021/08/30 07:16:39;;;;;;;0.00;0.00;;;18.20;99.90;;;;;;5089928;28;20210;-76
2021/08/30 07:19:05;;;;;;;7.32;0.82;;;18.00;99.90;;;;;;5108395;28;20194;-75
2021/08/30 07:21:31;;;;;;;0.20;0.20;;;17.70;99.90;;;;;;5107964;28;20160;-75
2021/08/30 07:23:57;;;;;;;0.03;0.03;;;17.50;99.90;;;;;;5089905;28;20185;-75
2021/08/30 07:26:23;;;;;;;0.20;0.20;;;17.20;99.90;;;;;;5090373;28;20235;-75
2021/08/30 07:28:49;;;;;;;0.90;0.82;;;17.30;99.90;;;;;;5108357;28;20229;-75
2021/08/30 07:31:15;;;;;;;0.10;0.10;;;17.20;99.90;;;;;;5107818;28;20191;-73
2021/08/30 07:33:42;;;;;;;0.47;0.47;;;17.30;99.90;;;;;;5090186;28;20159;-74
2021/08/30 07:36:08;;;;;;;0.28;0.15;;;17.30;99.90;;;;;;5108529;28;20179;-74
2021/08/30 07:38:34;;;;;;;0.13;0.13;;;17.70;99.90;;;;;;5108249;28;20245;-73
2021/08/30 07:41:00;;;;;;;0.20;0.20;;;17.90;99.90;;;;;;5108299;28;20258;-74
2021/08/30 07:43:26;;;;;;;0.10;0.10;;;17.60;99.90;;;;;;5090101;28;20171;-74
2021/08/30 07:45:52;;;;;;;0.10;0.10;;;17.50;99.90;;;;;;5106931;28;20223;-73
2021/08/30 07:48:18;;;;;;;0.15;0.15;;;17.60;99.90;;;;;;5089889;28;20245;-75
2021/08/30 07:50:44;;;;;;;0.03;0.03;;;17.50;99.90;;;;;;5089930;28;20163;-75
2021/08/30 07:53:10;;;;;;;0.77;0.70;;;17.40;99.90;;;;;;5108122;28;20152;-74
2021/08/30 07:55:36;;;;;;;0.10;0.10;;;17.30;99.90;;;;;;5108170;28;20183;-74
2021/08/30 07:58:04;;;;;;;0.03;0.03;;;17.40;99.90;;;;;;5090021;28;20228;-74
2021/08/30 08:00:30;;;;;;;0.95;0.93;;;17.10;99.90;;;;;;5112538;28;20162;-73
2021/08/30 08:02:56;;;;;;;0.40;0.40;;;17.10;99.90;;;;;;5094037;28;20616;-73
2021/08/30 08:05:22;;;;;;;0.30;0.30;;;17.20;99.90;;;;;;5093549;28;20312;-73
2021/08/30 08:07:48;;;;;;;0.10;0.10;;;17.20;99.90;;;;;;5093656;28;20224;-74
2021/08/30 08:10:14;;;;;;;0.10;0.10;;;17.20;99.90;;;;;;5093598;28;20635;-72
2021/08/30 08:12:41;;;;;;;0.10;0.10;;;17.10;99.90;;;;;;5093350;28;20270;-73
2021/08/30 08:15:08;;;;;;;0.30;0.30;;;17.00;99.90;;;;;;5111847;28;20179;-74
2021/08/30 08:17:34;;;;;;;0.20;0.20;;;16.90;99.90;;;;;;5093824;28;20167;-74
2021/08/30 08:20:02;;;;;;;0.20;0.20;;;16.90;99.90;;;;;;5111604;28;20229;-74
2021/08/30 08:22:30;;;;;;;0.57;0.57;;;17.00;99.90;;;;;;5111797;28;20163;-73
2021/08/30 08:25:01;;;;;;;0.25;0.25;;;17.10;99.90;;;;;;5093273;28;20198;-74
2021/08/30 08:27:27;;;;;;;0.95;0.85;;;17.00;99.90;;;;;;5111797;28;20237;-74
2021/08/30 08:29:54;;;;;;;0.85;0.77;;;16.80;99.90;;;;;;5111415;28;20199;-76
2021/08/30 08:32:20;;;;;;;0.10;0.10;;;16.70;99.90;;;;;;5093405;28;20202;-74
2021/08/30 08:34:46;;;;;;;0.35;0.28;;;16.90;99.90;;;;;;5111829;28;20155;-75
2021/08/30 08:37:11;;;;;;;0.10;0.10;;;16.90;99.90;;;;;;5111441;28;20212;-74
2021/08/30 08:39:37;;;;;;;0.63;0.47;;;17.10;99.90;;;;;;5111233;28;20202;-75
2021/08/30 08:42:04;;;;;;;0.38;0.38;;;17.10;99.90;;;;;;5111368;28;20163;-76
2021/08/30 08:44:29;;;;;;;0.30;0.30;;;17.30;99.90;;;;;;5092635;28;20182;-74
2021/08/30 08:46:56;;;;;;;0.20;0.20;;;17.30;99.90;;;;;;5092770;28;20171;-74
2021/08/30 08:49:23;;;;;;;0.70;0.47;;;17.50;99.90;;;;;;5093203;28;20277;-74
2021/08/30 08:51:50;;;;;;;2.00;0.90;;;17.70;99.90;;;;;;5101988;28;20215;-75
2021/08/30 08:54:15;;;;;;;0.65;0.65;;;17.40;99.90;;;;;;5091411;28;20168;-73
2021/08/30 08:56:42;;;;;;;0.30;0.30;;;17.30;99.90;;;;;;5091268;28;20179;-74
2021/08/30 08:59:08;;;;;;;1.27;0.30;;;16.90;99.90;;;;;;5091214;28;20183;-74
2021/08/30 09:01:36;;;;;;;0.43;0.43;;;16.90;99.90;;;;;;5073071;28;20219;-74
2021/08/30 09:04:04;;;;;;;0.28;0.28;;;16.70;99.90;;;;;;5091073;28;20171;-74
2021/08/30 09:06:42;;;;;;;0.52;0.52;;;16.70;99.90;;;;;;5090958;28;20168;-74
2021/08/30 09:09:11;;;;;;;0.28;0.28;;;16.80;99.90;;;;;;5072712;28;20265;-74
2021/08/30 09:11:44;;;;;;;0.57;0.55;;;16.90;99.90;;;;;;5090014;28;20184;-75
2021/08/30 09:14:19;;;;;;;0.22;0.08;;;17.00;99.90;;;;;;5072798;28;20172;-74
2021/08/30 09:16:49;;;;;;;1.27;1.17;;;17.00;99.90;;;;;;5090921;28;20148;-74
2021/08/30 09:19:17;;;;;;;0.10;0.10;;;17.30;99.90;;;;;;5090773;28;20248;-74
2021/08/30 09:21:47;;;;;;;0.13;0.13;;;18.10;99.90;;;;;;5072748;28;20176;-75
2021/08/30 09:24:14;;;;;;;0.10;0.10;;;18.70;99.90;;;;;;5090845;28;20171;-74
2021/08/30 09:26:45;;;;;;;0.10;0.10;;;19.10;99.90;;;;;;5090689;28;20160;-74
2021/08/30 09:29:20;;;;;;;0.22;0.22;;;19.40;99.90;;;;;;5090679;28;20198;-74
2021/08/30 09:32:15;;;;;;;10.82;0.73;;;19.40;99.90;;;;;;5090674;28;20211;-74
2021/08/30 09:34:47;;;;;;;0.20;0.20;;;19.40;99.90;;;;;;5072487;28;20172;-74
2021/08/30 09:37:22;;;;;;;0.77;0.77;;;19.30;99.90;;;;;;5090654;28;20157;-74
2021/08/30 09:39:59;;;;;;;0.60;0.60;;;19.40;99.90;;;;;;5072115;28;20210;-74
2021/08/30 09:42:27;;;;;;;4.47;0.80;;;19.60;99.90;;;;;;5090499;28;20182;-73
2021/08/30 09:44:56;;;;;;;0.10;0.10;;;19.70;99.90;;;;;;5072154;28;20250;-74
2021/08/30 09:47:23;;;;;;;3.78;0.95;;;19.80;99.90;;;;;;5090266;28;20640;-74
2021/08/30 09:49:50;;;;;;;0.45;0.45;;;20.30;99.90;;;;;;5090296;28;20214;-75
2021/08/30 09:52:22;;;;;;;4.75;0.88;;;20.50;99.90;;;;;;5103284;28;20234;-74
2021/08/30 09:54:49;;;;;;;0.47;0.40;;;20.90;99.90;;;;;;5092305;28;20170;-74
2021/08/30 09:57:16;;;;;;;0.90;0.65;;;20.80;99.90;;;;;;5092381;28;20234;-74
2021/08/30 09:59:46;;;;;;;0.20;0.20;;;21.00;99.90;;;;;;5110336;28;20673;-74
2021/08/30 10:02:17;;;;;;;0.25;0.25;;;20.80;99.90;;;;;;5110330;28;20155;-74
2021/08/30 10:04:44;;;;;;;0.68;0.68;;;19.80;99.90;;;;;;5110352;28;20147;-74
2021/08/30 10:07:12;;;;;;;0.03;0.03;;;19.80;99.90;;;;;;5110068;28;20159;-74
2021/08/30 10:09:41;;;;;;;0.20;0.20;;;19.30;99.90;;;;;;5110245;28;20210;-73
2021/08/30 10:12:08;;;;;;;2.35;1.40;;;19.30;99.90;;;;;;5109878;28;20306;-74
2021/08/30 10:14:35;;;;;;;0.17;0.17;;;19.20;99.90;;;;;;5091829;28;20186;-74
2021/08/30 10:17:04;;;;;;;0.45;0.45;;;19.40;99.90;;;;;;5110065;28;20166;-73
2021/08/30 10:19:36;;;;;;;1.35;0.57;;;18.90;99.90;;;;;;5091640;28;20203;-73
2021/08/30 10:22:16;;;;;;;0.68;0.40;;;18.60;99.90;;;;;;5109754;28;20163;-73
2021/08/30 10:24:42;;;;;;;1.65;0.70;;;18.80;99.90;;;;;;5091641;28;20169;-73
2021/08/30 10:27:10;;;;;;;0.30;0.30;;;19.20;99.90;;;;;;5109628;28;20166;-73
2021/08/30 10:29:41;;;;;;;0.38;0.38;;;19.00;99.90;;;;;;5109658;28;20214;-73
2021/08/30 10:32:22;;;;;;;0.32;0.20;;;18.50;99.90;;;;;;5109707;28;20183;-73
2021/08/30 10:34:55;;;;;;;0.05;0.05;;;18.90;99.90;;;;;;5091502;28;20190;-73
2021/08/30 10:37:22;;;;;;;0.10;0.10;;;19.10;99.90;;;;;;5109861;28;20613;-73
2021/08/30 10:39:54;;;;;;;0.30;0.30;;;18.50;99.90;;;;;;5109469;28;20237;-74
2021/08/30 10:42:21;;;;;;;0.13;0.13;;;19.00;99.90;;;;;;5109414;28;20159;-74
2021/08/30 10:44:54;;;;;;;0.90;0.30;;;20.00;99.90;;;;;;5109482;28;20163;-73
2021/08/30 10:47:24;;;;;;;3.78;0.70;;;20.80;99.90;;;;;;5091346;28;20187;-74
2021/08/30 10:49:52;;;;;;;8.77;0.65;;;21.20;99.90;;;;;;5090956;28;20199;-73
2021/08/30 10:52:18;;;;;;;0.35;0.35;;;21.10;99.90;;;;;;5109122;28;20218;-73
2021/08/30 10:54:55;;;;;;;0.65;0.47;;;20.70;99.90;;;;;;5090762;28;20231;-74
2021/08/30 10:57:39;;;;;;;0.52;0.52;;;20.40;99.90;;;;;;5109444;28;20158;-74
2021/08/30 11:00:10;;;;;;;0.17;0.17;;;19.90;99.90;;;;;;5109525;28;20196;-74
2021/08/30 11:02:47;;;;;;;0.10;0.10;;;19.90;99.90;;;;;;5109039;28;20194;-74
2021/08/30 11:05:17;;;;;;;1.00;0.52;;;19.80;99.90;;;;;;5109184;28;20159;-74
2021/08/30 11:07:43;;;;;;;0.45;0.20;;;20.10;99.90;;;;;;5090809;28;20205;-74
2021/08/30 11:10:10;;;;;;;0.10;0.10;;;19.80;99.90;;;;;;5090562;28;20175;-74
2021/08/30 11:12:42;;;;;;;0.10;0.10;;;19.70;99.90;;;;;;5108970;28;20187;-73
2021/08/30 11:15:08;;;;;;;0.22;0.22;;;19.20;99.90;;;;;;5090794;28;20171;-74
2021/08/30 11:17:36;;;;;;;0.10;0.10;;;19.20;99.90;;;;;;5108795;28;20181;-74
2021/08/30 11:20:04;;;;;;;0.63;0.40;;;19.30;99.90;;;;;;5090479;28;20198;-73
2021/08/30 11:22:31;;;;;;;0.13;0.13;;;18.90;99.90;;;;;;5108945;28;20170;-72
2021/08/30 11:25:02;;;;;;;0.10;0.10;;;18.80;99.90;;;;;;5108535;28;20163;-73
2021/08/30 11:27:32;;;;;;;0.32;0.32;;;18.70;99.90;;;;;;5108977;28;20159;-73
2021/08/30 11:30:19;;;;;;;0.57;0.32;;;18.70;99.90;;;;;;5090087;28;20197;-74
2021/08/30 11:32:50;;;;;;;0.10;0.10;;;18.90;99.90;;;;;;5108397;28;20214;-73
2021/08/30 11:35:16;;;;;;;0.00;0.00;;;18.90;99.90;;;;;;5109278;28;20231;-73
2021/08/30 11:37:42;;;;;;;0.10;0.10;;;18.80;99.90;;;;;;5090829;28;20192;-73
2021/08/30 11:40:11;;;;;;;0.00;0.00;;;18.70;99.90;;;;;;5108799;28;20611;-74
2021/08/30 11:42:37;;;;;;;0.38;0.35;;;18.70;99.90;;;;;;5090556;28;20250;-72
2021/08/30 11:45:07;;;;;;;0.10;0.10;;;18.80;99.90;;;;;;5090215;28;20235;-73
2021/08/30 11:47:33;;;;;;;0.20;0.20;;;18.80;99.90;;;;;;5090110;28;20171;-72
2021/08/30 11:50:03;;;;;;;0.10;0.10;;;18.80;99.90;;;;;;5108709;28;20233;-74
2021/08/30 11:52:32;;;;;;;0.47;0.47;;;18.80;99.90;;;;;;5108272;28;20223;-73
2021/08/30 11:55:01;;;;;;;0.13;0.13;;;18.90;99.90;;;;;;5089886;28;20183;-73
2021/08/30 11:57:42;;;;;;;0.10;0.10;;;18.80;99.90;;;;;;5108566;28;20170;-74
2021/08/30 12:00:15;;;;;;;0.43;0.43;;;18.60;99.90;;;;;;5108589;28;20151;-74
2021/08/30 12:02:42;;;;;;;0.17;0.17;;;18.70;99.90;;;;;;5108253;28;20171;-74
2021/08/30 12:05:09;;;;;;;0.00;0.00;;;18.80;99.90;;;;;;5090127;28;20175;-73
2021/08/30 12:07:37;;;;;;;0.00;0.00;;;19.30;99.90;;;;;;5108572;28;20151;-75
2021/08/30 12:10:05;;;;;;;0.52;0.13;;;19.90;99.90;;;;;;5089922;28;20195;-75
2021/08/30 12:12:38;;;;;;;0.00;0.00;;;20.00;99.90;;;;;;5108365;28;20206;-75
2021/08/30 12:15:18;;;;;;;0.10;0.10;;;19.70;99.90;;;;;;5108247;28;20155;-74
2021/08/30 12:17:55;;;;;;;0.00;0.00;;;19.80;99.90;;;;;;5108105;28;20208;-72
2021/08/30 12:20:27;;;;;;;0.00;0.00;;;20.40;99.90;;;;;;5108127;28;20167;-74
2021/08/30 12:22:59;;;;;;;0.00;0.00;;;20.40;99.90;;;;;;5089228;28;20259;-74
2021/08/30 12:25:27;;;;;;;0.10;0.10;;;20.00;99.90;;;;;;5108022;28;20151;-74
2021/08/30 12:27:54;;;;;;;0.10;0.10;;;19.60;99.90;;;;;;5106909;28;20178;-74
2021/08/30 12:30:25;;;;;;;0.13;0.13;;;19.60;99.90;;;;;;5108194;28;20226;-74
2021/08/30 12:33:00;;;;;;;0.22;0.22;;;19.70;99.90;;;;;;5107956;28;20199;-75
2021/08/30 12:35:31;;;;;;;0.10;0.10;;;20.10;99.90;;;;;;5089947;28;20182;-72
2021/08/30 12:38:00;;;;;;;0.20;0.20;;;20.00;99.90;;;;;;5089848;28;20167;-73
2021/08/30 12:40:29;;;;;;;0.10;0.10;;;20.30;99.90;;;;;;5089761;28;20163;-74
2021/08/30 12:42:56;;;;;;;0.00;0.00;;;19.90;99.90;;;;;;5088861;28;20185;-73
2021/08/30 12:45:23;;;;;;;0.47;0.40;;;19.30;99.90;;;;;;5091258;28;20628;-73
2021/08/30 12:47:49;;;;;;;0.30;0.30;;;19.30;99.90;;;;;;5111533;28;20178;-73
2021/08/30 12:50:15;;;;;;;0.52;0.20;;;19.40;99.90;;;;;;5093076;28;20175;-74
2021/08/30 12:52:42;;;;;;;0.70;0.40;;;19.40;99.90;;;;;;5094656;28;20222;-73
2021/08/30 12:55:10;;;;;;;0.10;0.10;;;19.40;99.90;;;;;;5072872;28;20179;-74
2021/08/30 12:57:36;;;;;;;0.05;0.05;;;19.30;99.90;;;;;;5091349;28;20194;-74